sensor_id;sensor_type;location;lat;lon;timestamp;temperature;humidity
37702;DHT22;23548;51.196;6.838;2023-03-14T00:01:53;11.70;99.90
37702;DHT22;23548;51.196;6.838;2023-03-14T00:04:18;11.70;99.90
37702;DHT22;23548;51.196;6.838;2023-03-14T00:06:44;11.80;99.90
37702;DHT22;23548;51.196;6.838;2023-03-14T00:09:12;11.80;99.90
37702;DHT22;23548;51.196;6.838;2023-03-14T00:11:38;11.80;99.90
37702;DHT22;23548;51.196;6.838;2023-03-14T00:14:04;11.80;99.90
37702;DHT22;23548;51.196;6.838;2023-03-14T00:16:30;11.80;99.90
37702;DHT22;23548;51.196;6.838;2023-03-14T00:18:57;11.80;99.90
37702;DHT22;23548;51.196;6.838;2023-03-14T00:21:23;11.70;99.90
37702;DHT22;23548;51.196;6.838;2023-03-14T00:23:49;11.80;99.90
37702;DHT22;23548;51.196;6.838;2023-03-14T00:26:17;11.80;99.90
37702;DHT22;23548;51.196;6.838;2023-03-14T00:28:44;11.80;99.90
37702;DHT22;23548;51.196;6.838;2023-03-14T00:31:15;11.90;99.90
37702;DHT22;23548;51.196;6.838;2023-03-14T00:33:41;11.90;99.90
37702;DHT22;23548;51.196;6.838;2023-03-14T00:36:10;11.90;99.90
37702;DHT22;23548;51.196;6.838;2023-03-14T00:38:36;12.00;99.90
37702;DHT22;23548;51.196;6.838;2023-03-14T00:41:05;12.00;99.90
37702;DHT22;23548;51.196;6.838;2023-03-14T00:43:31;11.90;99.90
37702;DHT22;23548;51.196;6.838;2023-03-14T00:45:57;11.80;99.90
37702;DHT22;23548;51.196;6.838;2023-03-14T00:48:23;11.50;99.90
37702;DHT22;23548;51.196;6.838;2023-03-14T00:50:49;11.30;99.90
37702;DHT22;23548;51.196;6.838;2023-03-14T00:53:15;11.10;99.90
37702;DHT22;23548;51.196;6.838;2023-03-14T00:55:42;10.90;99.90
37702;DHT22;23548;51.196;6.838;2023-03-14T00:58:10;10.70;99.90
37702;DHT22;23548;51.196;6.838;2023-03-14T01:00:36;10.60;99.90
37702;DHT22;23548;51.196;6.838;2023-03-14T01:03:02;10.50;99.90
37702;DHT22;23548;51.196;6.838;2023-03-14T01:05:28;10.30;99.90
37702;DHT22;23548;51.196;6.838;2023-03-14T01:07:54;10.10;99.90
37702;DHT22;23548;51.196;6.838;2023-03-14T01:10:20;10.10;99.90
37702;DHT22;23548;51.196;6.838;2023-03-14T01:12:45;10.00;99.90
37702;DHT22;23548;51.196;6.838;2023-03-14T01:15:11;10.00;99.90
37702;DHT22;23548;51.196;6.838;2023-03-14T01:17:37;9.90;99.90
37702;DHT22;23548;51.196;6.838;2023-03-14T01:20:11;9.90;99.90
37702;DHT22;23548;51.196;6.838;2023-03-14T01:22:37;9.90;99.90
37702;DHT22;23548;51.196;6.838;2023-03-14T01:25:10;9.90;99.90
37702;DHT22;23548;51.196;6.838;2023-03-14T01:27:36;9.80;99.90
37702;DHT22;23548;51.196;6.838;2023-03-14T01:30:03;9.80;99.90
37702;DHT22;23548;51.196;6.838;2023-03-14T01:32:29;9.80;99.90
37702;DHT22;23548;51.196;6.838;2023-03-14T01:34:55;9.80;99.90
37702;DHT22;23548;51.196;6.838;2023-03-14T01:37:21;9.70;99.90
37702;DHT22;23548;51.196;6.838;2023-03-14T01:39:47;9.80;99.90
37702;DHT22;23548;51.196;6.838;2023-03-14T01:42:13;9.80;99.90
37702;DHT22;23548;51.196;6.838;2023-03-14T01:44:55;9.80;99.90
37702;DHT22;23548;51.196;6.838;2023-03-14T01:47:22;9.80;99.90
37702;DHT22;23548;51.196;6.838;2023-03-14T01:50:04;9.90;99.90
37702;DHT22;23548;51.196;6.838;2023-03-14T01:52:38;9.90;99.90
37702;DHT22;23548;51.196;6.838;2023-03-14T01:55:12;10.00;99.90
37702;DHT22;23548;51.196;6.838;2023-03-14T01:58:01;10.10;99.90
37702;DHT22;23548;51.196;6.838;2023-03-14T02:00:28;10.00;99.90
37702;DHT22;23548;51.196;6.838;2023-03-14T02:06:19;10.10;99.90
37702;DHT22;23548;51.196;6.838;2023-03-14T02:08:46;10.00;99.90
37702;DHT22;23548;51.196;6.838;2023-03-14T02:11:15;10.10;99.90
37702;DHT22;23548;51.196;6.838;2023-03-14T02:13:42;10.20;99.90
37702;DHT22;23548;51.196;6.838;2023-03-14T02:16:08;10.20;99.90
37702;DHT22;23548;51.196;6.838;2023-03-14T02:18:34;10.20;99.90
37702;DHT22;23548;51.196;6.838;2023-03-14T02:21:39;10.30;99.90
37702;DHT22;23548;51.196;6.838;2023-03-14T02:24:25;10.20;99.90
37702;DHT22;23548;51.196;6.838;2023-03-14T02:27:16;10.20;99.90
37702;DHT22;23548;51.196;6.838;2023-03-14T02:30:11;10.10;99.90
37702;DHT22;23548;51.196;6.838;2023-03-14T02:32:38;10.10;99.90
37702;DHT22;23548;51.196;6.838;2023-03-14T02:35:09;10.10;99.90
37702;DHT22;23548;51.196;6.838;2023-03-14T02:37:41;10.10;99.90
37702;DHT22;23548;51.196;6.838;2023-03-14T02:40:09;10.10;99.90
37702;DHT22;23548;51.196;6.838;2023-03-14T02:42:34;10.10;99.90
37702;DHT22;23548;51.196;6.838;2023-03-14T02:47:52;10.10;99.90
37702;DHT22;23548;51.196;6.838;2023-03-14T02:50:22;10.10;99.90
37702;DHT22;23548;51.196;6.838;2023-03-14T02:52:50;10.10;99.90
37702;DHT22;23548;51.196;6.838;2023-03-14T02:55:21;10.10;99.90
37702;DHT22;23548;51.196;6.838;2023-03-14T02:57:47;10.10;99.90
37702;DHT22;23548;51.196;6.838;2023-03-14T03:00:13;10.10;99.90
37702;DHT22;23548;51.196;6.838;2023-03-14T03:02:38;10.20;99.90
37702;DHT22;23548;51.196;6.838;2023-03-14T03:05:04;10.20;99.90
37702;DHT22;23548;51.196;6.838;2023-03-14T03:07:30;10.20;99.90
37702;DHT22;23548;51.196;6.838;2023-03-14T03:09:56;10.20;99.90
37702;DHT22;23548;51.196;6.838;2023-03-14T03:12:22;10.30;99.90
37702;DHT22;23548;51.196;6.838;2023-03-14T03:14:48;10.30;99.90
37702;DHT22;23548;51.196;6.838;2023-03-14T03:17:13;10.30;99.90
37702;DHT22;23548;51.196;6.838;2023-03-14T03:19:39;10.30;99.90
37702;DHT22;23548;51.196;6.838;2023-03-14T03:22:05;10.30;99.90
37702;DHT22;23548;51.196;6.838;2023-03-14T03:24:31;10.30;99.90
37702;DHT22;23548;51.196;6.838;2023-03-14T03:26:56;10.20;99.90
37702;DHT22;23548;51.196;6.838;2023-03-14T03:29:22;10.20;99.90
37702;DHT22;23548;51.196;6.838;2023-03-14T03:31:48;10.20;99.90
37702;DHT22;23548;51.196;6.838;2023-03-14T03:34:14;10.20;99.90
37702;DHT22;23548;51.196;6.838;2023-03-14T03:36:40;10.10;99.90
37702;DHT22;23548;51.196;6.838;2023-03-14T03:39:06;10.00;99.90
37702;DHT22;23548;51.196;6.838;2023-03-14T03:41:32;9.90;99.90
37702;DHT22;23548;51.196;6.838;2023-03-14T03:43:59;9.90;99.90
37702;DHT22;23548;51.196;6.838;2023-03-14T03:46:25;9.90;99.90
37702;DHT22;23548;51.196;6.838;2023-03-14T03:48:55;9.90;99.90
37702;DHT22;23548;51.196;6.838;2023-03-14T03:51:21;9.80;99.90
37702;DHT22;23548;51.196;6.838;2023-03-14T03:53:46;9.90;99.90
37702;DHT22;23548;51.196;6.838;2023-03-14T03:56:12;9.90;99.90
37702;DHT22;23548;51.196;6.838;2023-03-14T03:58:38;9.80;99.90
37702;DHT22;23548;51.196;6.838;2023-03-14T04:01:05;9.80;99.90
37702;DHT22;23548;51.196;6.838;2023-03-14T04:03:32;9.80;99.90
37702;DHT22;23548;51.196;6.838;2023-03-14T04:06:03;9.70;99.90
37702;DHT22;23548;51.196;6.838;2023-03-14T04:08:29;9.70;99.90
37702;DHT22;23548;51.196;6.838;2023-03-14T04:11:00;9.60;99.90
37702;DHT22;23548;51.196;6.838;2023-03-14T04:13:26;9.60;99.90
37702;DHT22;23548;51.196;6.838;2023-03-14T04:15:53;9.60;99.90
37702;DHT22;23548;51.196;6.838;2023-03-14T04:18:19;9.60;99.90
37702;DHT22;23548;51.196;6.838;2023-03-14T04:20:45;9.60;99.90
37702;DHT22;23548;51.196;6.838;2023-03-14T04:23:11;9.60;99.90
37702;DHT22;23548;51.196;6.838;2023-03-14T04:25:37;9.70;99.90
37702;DHT22;23548;51.196;6.838;2023-03-14T04:28:03;9.70;99.90
37702;DHT22;23548;51.196;6.838;2023-03-14T04:32:57;9.70;99.90
37702;DHT22;23548;51.196;6.838;2023-03-14T04:35:22;9.70;99.90
37702;DHT22;23548;51.196;6.838;2023-03-14T04:37:48;9.70;99.90
37702;DHT22;23548;51.196;6.838;2023-03-14T04:40:15;9.70;99.90
37702;DHT22;23548;51.196;6.838;2023-03-14T04:42:41;9.60;99.90
37702;DHT22;23548;51.196;6.838;2023-03-14T04:45:07;9.70;99.90
37702;DHT22;23548;51.196;6.838;2023-03-14T04:47:33;9.70;99.90
37702;DHT22;23548;51.196;6.838;2023-03-14T04:49:59;9.70;99.90
37702;DHT22;23548;51.196;6.838;2023-03-14T04:52:26;9.70;99.90
37702;DHT22;23548;51.196;6.838;2023-03-14T04:54:52;9.70;99.90
37702;DHT22;23548;51.196;6.838;2023-03-14T04:57:18;9.70;99.90
37702;DHT22;23548;51.196;6.838;2023-03-14T04:59:43;9.70;99.90
37702;DHT22;23548;51.196;6.838;2023-03-14T05:02:10;9.60;99.90
37702;DHT22;23548;51.196;6.838;2023-03-14T05:04:35;9.70;99.90
37702;DHT22;23548;51.196;6.838;2023-03-14T05:07:01;9.70;99.90
37702;DHT22;23548;51.196;6.838;2023-03-14T05:09:27;9.60;99.90
37702;DHT22;23548;51.196;6.838;2023-03-14T05:11:53;9.70;99.90
37702;DHT22;23548;51.196;6.838;2023-03-14T05:14:18;9.70;99.90
37702;DHT22;23548;51.196;6.838;2023-03-14T05:16:44;9.70;99.90
37702;DHT22;23548;51.196;6.838;2023-03-14T05:19:11;9.80;99.90
37702;DHT22;23548;51.196;6.838;2023-03-14T05:21:37;9.80;99.90
37702;DHT22;23548;51.196;6.838;2023-03-14T05:24:03;9.80;99.90
37702;DHT22;23548;51.196;6.838;2023-03-14T05:26:29;9.80;99.90
37702;DHT22;23548;51.196;6.838;2023-03-14T05:28:55;9.80;99.90
37702;DHT22;23548;51.196;6.838;2023-03-14T05:31:21;9.80;99.90
37702;DHT22;23548;51.196;6.838;2023-03-14T05:33:46;9.80;99.90
37702;DHT22;23548;51.196;6.838;2023-03-14T05:36:12;9.80;99.90
37702;DHT22;23548;51.196;6.838;2023-03-14T05:38:38;9.80;99.90
37702;DHT22;23548;51.196;6.838;2023-03-14T05:41:04;9.90;99.90
37702;DHT22;23548;51.196;6.838;2023-03-14T05:43:29;9.90;99.90
37702;DHT22;23548;51.196;6.838;2023-03-14T05:45:55;9.90;99.90
37702;DHT22;23548;51.196;6.838;2023-03-14T05:48:21;9.90;99.90
37702;DHT22;23548;51.196;6.838;2023-03-14T05:50:47;10.00;99.90
37702;DHT22;23548;51.196;6.838;2023-03-14T05:53:13;10.00;99.90
37702;DHT22;23548;51.196;6.838;2023-03-14T05:55:40;10.00;99.90
37702;DHT22;23548;51.196;6.838;2023-03-14T05:58:06;10.00;99.90
37702;DHT22;23548;51.196;6.838;2023-03-14T06:00:32;10.00;99.90
37702;DHT22;23548;51.196;6.838;2023-03-14T06:02:57;10.00;99.90
37702;DHT22;23548;51.196;6.838;2023-03-14T06:05:23;10.00;99.90
37702;DHT22;23548;51.196;6.838;2023-03-14T06:07:49;10.10;99.90
37702;DHT22;23548;51.196;6.838;2023-03-14T06:10:14;10.10;99.90
37702;DHT22;23548;51.196;6.838;2023-03-14T06:12:40;10.20;99.90
37702;DHT22;23548;51.196;6.838;2023-03-14T06:15:06;10.20;99.90
37702;DHT22;23548;51.196;6.838;2023-03-14T06:17:32;10.30;99.90
37702;DHT22;23548;51.196;6.838;2023-03-14T06:19:58;10.30;99.90
37702;DHT22;23548;51.196;6.838;2023-03-14T06:22:24;10.30;99.90
37702;DHT22;23548;51.196;6.838;2023-03-14T06:24:50;10.30;99.90
37702;DHT22;23548;51.196;6.838;2023-03-14T06:27:15;10.40;99.90
37702;DHT22;23548;51.196;6.838;2023-03-14T06:29:41;10.50;99.90
37702;DHT22;23548;51.196;6.838;2023-03-14T06:32:07;10.40;99.90
37702;DHT22;23548;51.196;6.838;2023-03-14T06:34:32;10.40;99.90
37702;DHT22;23548;51.196;6.838;2023-03-14T06:36:58;10.40;99.90
37702;DHT22;23548;51.196;6.838;2023-03-14T06:39:24;10.50;99.90
37702;DHT22;23548;51.196;6.838;2023-03-14T06:41:49;10.50;99.90
37702;DHT22;23548;51.196;6.838;2023-03-14T06:44:15;10.60;99.90
37702;DHT22;23548;51.196;6.838;2023-03-14T06:46:41;10.50;99.90
37702;DHT22;23548;51.196;6.838;2023-03-14T06:49:06;10.60;99.90
37702;DHT22;23548;51.196;6.838;2023-03-14T06:51:32;10.60;99.90
37702;DHT22;23548;51.196;6.838;2023-03-14T06:53:58;10.60;99.90
37702;DHT22;23548;51.196;6.838;2023-03-14T06:56:24;10.70;99.90
37702;DHT22;23548;51.196;6.838;2023-03-14T06:58:49;10.80;99.90
37702;DHT22;23548;51.196;6.838;2023-03-14T07:01:24;10.80;99.90
37702;DHT22;23548;51.196;6.838;2023-03-14T07:03:50;10.80;99.90
37702;DHT22;23548;51.196;6.838;2023-03-14T07:06:16;10.80;99.90
37702;DHT22;23548;51.196;6.838;2023-03-14T07:08:42;10.80;99.90
37702;DHT22;23548;51.196;6.838;2023-03-14T07:11:08;10.90;99.90
37702;DHT22;23548;51.196;6.838;2023-03-14T07:13:35;10.90;99.90
37702;DHT22;23548;51.196;6.838;2023-03-14T07:16:01;10.90;99.90
37702;DHT22;23548;51.196;6.838;2023-03-14T07:18:27;11.00;99.90
37702;DHT22;23548;51.196;6.838;2023-03-14T07:20:52;11.10;99.90
37702;DHT22;23548;51.196;6.838;2023-03-14T07:23:18;11.10;99.90
37702;DHT22;23548;51.196;6.838;2023-03-14T07:25:44;11.10;99.90
37702;DHT22;23548;51.196;6.838;2023-03-14T07:28:09;11.10;99.90
37702;DHT22;23548;51.196;6.838;2023-03-14T07:30:35;11.20;99.90
37702;DHT22;23548;51.196;6.838;2023-03-14T07:33:01;11.30;99.90
37702;DHT22;23548;51.196;6.838;2023-03-14T07:35:26;11.30;99.90
37702;DHT22;23548;51.196;6.838;2023-03-14T07:37:52;11.40;99.90
37702;DHT22;23548;51.196;6.838;2023-03-14T07:40:19;11.40;99.90
37702;DHT22;23548;51.196;6.838;2023-03-14T07:42:44;11.50;99.90
37702;DHT22;23548;51.196;6.838;2023-03-14T07:45:11;11.50;99.90
37702;DHT22;23548;51.196;6.838;2023-03-14T07:47:36;11.50;99.90
37702;DHT22;23548;51.196;6.838;2023-03-14T07:50:04;11.50;99.90
37702;DHT22;23548;51.196;6.838;2023-03-14T07:52:30;11.50;99.90
37702;DHT22;23548;51.196;6.838;2023-03-14T07:54:56;11.30;99.90
37702;DHT22;23548;51.196;6.838;2023-03-14T07:57:22;11.30;99.90
37702;DHT22;23548;51.196;6.838;2023-03-14T07:59:49;11.30;99.90
37702;DHT22;23548;51.196;6.838;2023-03-14T08:02:15;11.40;99.90
37702;DHT22;23548;51.196;6.838;2023-03-14T08:04:41;11.50;99.90
37702;DHT22;23548;51.196;6.838;2023-03-14T08:07:06;11.50;99.90
37702;DHT22;23548;51.196;6.838;2023-03-14T08:09:32;11.80;99.90
37702;DHT22;23548;51.196;6.838;2023-03-14T08:11:58;11.90;99.90
37702;DHT22;23548;51.196;6.838;2023-03-14T08:14:24;11.90;99.90
37702;DHT22;23548;51.196;6.838;2023-03-14T08:16:51;11.90;99.90
37702;DHT22;23548;51.196;6.838;2023-03-14T08:19:17;12.00;99.90
37702;DHT22;23548;51.196;6.838;2023-03-14T08:21:43;12.40;99.90
37702;DHT22;23548;51.196;6.838;2023-03-14T08:24:08;12.40;99.90
37702;DHT22;23548;51.196;6.838;2023-03-14T08:26:34;12.40;99.90
37702;DHT22;23548;51.196;6.838;2023-03-14T08:29:00;12.30;99.90
37702;DHT22;23548;51.196;6.838;2023-03-14T08:31:26;12.30;99.90
37702;DHT22;23548;51.196;6.838;2023-03-14T08:33:52;12.00;99.90
37702;DHT22;23548;51.196;6.838;2023-03-14T08:36:19;11.80;99.90
37702;DHT22;23548;51.196;6.838;2023-03-14T08:38:45;11.70;99.90
37702;DHT22;23548;51.196;6.838;2023-03-14T08:41:11;11.80;99.90
37702;DHT22;23548;51.196;6.838;2023-03-14T08:43:36;11.70;99.90
37702;DHT22;23548;51.196;6.838;2023-03-14T08:46:03;11.80;99.90
37702;DHT22;23548;51.196;6.838;2023-03-14T08:48:29;11.90;99.90
37702;DHT22;23548;51.196;6.838;2023-03-14T08:50:56;12.00;99.90
37702;DHT22;23548;51.196;6.838;2023-03-14T08:53:22;11.90;99.90
37702;DHT22;23548;51.196;6.838;2023-03-14T08:55:54;11.80;99.90
37702;DHT22;23548;51.196;6.838;2023-03-14T08:58:20;11.70;99.90
37702;DHT22;23548;51.196;6.838;2023-03-14T09:00:48;11.70;99.90
37702;DHT22;23548;51.196;6.838;2023-03-14T09:03:13;11.60;99.90
37702;DHT22;23548;51.196;6.838;2023-03-14T09:05:40;11.40;99.90
37702;DHT22;23548;51.196;6.838;2023-03-14T09:08:05;11.40;99.90
37702;DHT22;23548;51.196;6.838;2023-03-14T09:10:31;11.40;99.90
37702;DHT22;23548;51.196;6.838;2023-03-14T09:12:57;11.40;99.90
37702;DHT22;23548;51.196;6.838;2023-03-14T09:15:24;11.30;99.90
37702;DHT22;23548;51.196;6.838;2023-03-14T09:17:49;11.50;99.90
37702;DHT22;23548;51.196;6.838;2023-03-14T09:20:15;11.30;99.90
37702;DHT22;23548;51.196;6.838;2023-03-14T09:22:41;11.30;99.90
37702;DHT22;23548;51.196;6.838;2023-03-14T09:25:08;11.20;99.90
37702;DHT22;23548;51.196;6.838;2023-03-14T09:27:33;10.90;99.90
37702;DHT22;23548;51.196;6.838;2023-03-14T09:29:59;10.40;99.90
37702;DHT22;23548;51.196;6.838;2023-03-14T09:32:25;9.90;99.90
37702;DHT22;23548;51.196;6.838;2023-03-14T09:34:50;9.70;99.90
37702;DHT22;23548;51.196;6.838;2023-03-14T09:37:16;9.30;99.90
37702;DHT22;23548;51.196;6.838;2023-03-14T09:39:42;9.10;99.90
37702;DHT22;23548;51.196;6.838;2023-03-14T09:42:20;8.90;99.90
37702;DHT22;23548;51.196;6.838;2023-03-14T09:45:01;8.90;99.90
37702;DHT22;23548;51.196;6.838;2023-03-14T09:47:27;9.00;99.90
37702;DHT22;23548;51.196;6.838;2023-03-14T09:49:54;9.00;99.90
37702;DHT22;23548;51.196;6.838;2023-03-14T09:52:40;8.90;99.90
37702;DHT22;23548;51.196;6.838;2023-03-14T09:55:12;8.90;99.90
37702;DHT22;23548;51.196;6.838;2023-03-14T09:57:39;8.80;99.90
37702;DHT22;23548;51.196;6.838;2023-03-14T10:00:27;8.80;99.90
37702;DHT22;23548;51.196;6.838;2023-03-14T10:03:00;8.80;99.90
37702;DHT22;23548;51.196;6.838;2023-03-14T10:05:28;8.80;99.90
37702;DHT22;23548;51.196;6.838;2023-03-14T10:07:55;8.80;99.90
37702;DHT22;23548;51.196;6.838;2023-03-14T10:10:23;8.80;99.90
37702;DHT22;23548;51.196;6.838;2023-03-14T10:12:57;8.90;99.90
37702;DHT22;23548;51.196;6.838;2023-03-14T10:15:31;8.90;99.90
37702;DHT22;23548;51.196;6.838;2023-03-14T10:18:00;8.90;99.90
37702;DHT22;23548;51.196;6.838;2023-03-14T10:20:41;8.90;99.90
37702;DHT22;23548;51.196;6.838;2023-03-14T10:25:43;8.80;99.90
37702;DHT22;23548;51.196;6.838;2023-03-14T10:28:27;8.80;99.90
37702;DHT22;23548;51.196;6.838;2023-03-14T10:30:54;8.80;99.90
37702;DHT22;23548;51.196;6.838;2023-03-14T10:33:29;8.80;99.90
37702;DHT22;23548;51.196;6.838;2023-03-14T10:38:42;9.00;99.90
37702;DHT22;23548;51.196;6.838;2023-03-14T10:41:25;8.90;99.90
37702;DHT22;23548;51.196;6.838;2023-03-14T10:43:57;8.80;99.90
37702;DHT22;23548;51.196;6.838;2023-03-14T10:46:26;8.90;99.90
37702;DHT22;23548;51.196;6.838;2023-03-14T10:48:53;8.70;99.90
37702;DHT22;23548;51.196;6.838;2023-03-14T10:51:28;8.80;99.90
37702;DHT22;23548;51.196;6.838;2023-03-14T10:54:04;8.80;99.90
37702;DHT22;23548;51.196;6.838;2023-03-14T10:56:37;8.80;99.90
37702;DHT22;23548;51.196;6.838;2023-03-14T10:59:07;8.90;99.90
37702;DHT22;23548;51.196;6.838;2023-03-14T11:01:59;8.80;99.90
37702;DHT22;23548;51.196;6.838;2023-03-14T11:07:42;8.60;99.90
37702;DHT22;23548;51.196;6.838;2023-03-14T11:21:35;7.80;99.90
37702;DHT22;23548;51.196;6.838;2023-03-14T11:26:42;7.60;99.90
37702;DHT22;23548;51.196;6.838;2023-03-14T11:29:22;7.50;99.90
37702;DHT22;23548;51.196;6.838;2023-03-14T11:31:53;7.40;99.90
37702;DHT22;23548;51.196;6.838;2023-03-14T11:34:44;7.30;99.90
37702;DHT22;23548;51.196;6.838;2023-03-14T11:37:31;7.30;99.90
37702;DHT22;23548;51.196;6.838;2023-03-14T11:42:35;7.20;99.90
37702;DHT22;23548;51.196;6.838;2023-03-14T11:45:01;7.20;99.90
37702;DHT22;23548;51.196;6.838;2023-03-14T11:47:42;7.30;99.90
37702;DHT22;23548;51.196;6.838;2023-03-14T11:50:23;7.40;99.90
37702;DHT22;23548;51.196;6.838;2023-03-14T11:55:45;7.70;99.90
37702;DHT22;23548;51.196;6.838;2023-03-14T11:58:31;7.70;99.90
37702;DHT22;23548;51.196;6.838;2023-03-14T12:01:05;7.70;99.90
37702;DHT22;23548;51.196;6.838;2023-03-14T12:06:50;7.90;99.90
37702;DHT22;23548;51.196;6.838;2023-03-14T12:09:18;8.10;99.90
37702;DHT22;23548;51.196;6.838;2023-03-14T12:12:02;8.00;99.90
37702;DHT22;23548;51.196;6.838;2023-03-14T12:14:36;7.90;99.90
37702;DHT22;23548;51.196;6.838;2023-03-14T12:17:24;7.80;99.90
37702;DHT22;23548;51.196;6.838;2023-03-14T12:20:17;7.60;99.90
37702;DHT22;23548;51.196;6.838;2023-03-14T12:25:26;7.60;99.90
37702;DHT22;23548;51.196;6.838;2023-03-14T12:35:36;8.70;99.90
37702;DHT22;23548;51.196;6.838;2023-03-14T12:38:06;9.00;99.90
37702;DHT22;23548;51.196;6.838;2023-03-14T12:40:39;9.00;99.90
37702;DHT22;23548;51.196;6.838;2023-03-14T12:43:39;9.10;99.90
37702;DHT22;23548;51.196;6.838;2023-03-14T12:48:45;9.20;99.90
37702;DHT22;23548;51.196;6.838;2023-03-14T12:51:18;9.00;99.90
37702;DHT22;23548;51.196;6.838;2023-03-14T13:01:59;9.70;99.90
37702;DHT22;23548;51.196;6.838;2023-03-14T13:06:59;8.40;99.90
37702;DHT22;23548;51.196;6.838;2023-03-14T13:12:09;7.10;99.90
37702;DHT22;23548;51.196;6.838;2023-03-14T13:14:40;6.90;99.90
37702;DHT22;23548;51.196;6.838;2023-03-14T13:17:14;7.00;99.90
37702;DHT22;23548;51.196;6.838;2023-03-14T13:19:40;7.20;99.90
37702;DHT22;23548;51.196;6.838;2023-03-14T13:22:24;7.30;99.90
37702;DHT22;23548;51.196;6.838;2023-03-14T13:25:09;7.30;99.90
37702;DHT22;23548;51.196;6.838;2023-03-14T13:27:36;7.30;99.90
37702;DHT22;23548;51.196;6.838;2023-03-14T13:30:26;7.40;99.90
37702;DHT22;23548;51.196;6.838;2023-03-14T13:32:54;7.60;99.90
37702;DHT22;23548;51.196;6.838;2023-03-14T13:35:26;7.70;99.90
37702;DHT22;23548;51.196;6.838;2023-03-14T13:37:59;8.00;99.90
37702;DHT22;23548;51.196;6.838;2023-03-14T13:40:29;8.20;99.90
37702;DHT22;23548;51.196;6.838;2023-03-14T13:43:28;8.60;99.90
37702;DHT22;23548;51.196;6.838;2023-03-14T13:48:32;9.30;99.90
37702;DHT22;23548;51.196;6.838;2023-03-14T13:51:06;8.60;99.90
37702;DHT22;23548;51.196;6.838;2023-03-14T13:53:48;7.90;99.90
37702;DHT22;23548;51.196;6.838;2023-03-14T13:56:16;7.30;99.90
37702;DHT22;23548;51.196;6.838;2023-03-14T13:58:43;7.10;99.90
37702;DHT22;23548;51.196;6.838;2023-03-14T14:01:15;6.80;99.90
37702;DHT22;23548;51.196;6.838;2023-03-14T14:03:44;6.60;99.90
37702;DHT22;23548;51.196;6.838;2023-03-14T14:06:35;6.90;99.90
37702;DHT22;23548;51.196;6.838;2023-03-14T14:09:25;7.10;99.90
37702;DHT22;23548;51.196;6.838;2023-03-14T14:11:59;7.40;99.90
37702;DHT22;23548;51.196;6.838;2023-03-14T14:14:33;7.60;99.90
37702;DHT22;23548;51.196;6.838;2023-03-14T14:17:01;8.10;99.90
37702;DHT22;23548;51.196;6.838;2023-03-14T14:19:30;8.10;99.90
37702;DHT22;23548;51.196;6.838;2023-03-14T14:21:59;7.90;99.90
37702;DHT22;23548;51.196;6.838;2023-03-14T14:24:29;8.00;99.90
37702;DHT22;23548;51.196;6.838;2023-03-14T14:30:04;8.20;99.90
37702;DHT22;23548;51.196;6.838;2023-03-14T14:32:37;8.40;99.90
37702;DHT22;23548;51.196;6.838;2023-03-14T14:35:04;8.60;99.90
37702;DHT22;23548;51.196;6.838;2023-03-14T14:37:33;8.90;99.90
37702;DHT22;23548;51.196;6.838;2023-03-14T14:40:07;9.40;99.90
37702;DHT22;23548;51.196;6.838;2023-03-14T14:42:39;9.50;99.90
37702;DHT22;23548;51.196;6.838;2023-03-14T14:45:11;9.50;99.90
37702;DHT22;23548;51.196;6.838;2023-03-14T14:47:52;9.40;99.90
37702;DHT22;23548;51.196;6.838;2023-03-14T14:50:31;9.30;99.90
37702;DHT22;23548;51.196;6.838;2023-03-14T14:53:03;9.30;99.90
37702;DHT22;23548;51.196;6.838;2023-03-14T14:55:34;9.20;99.90
37702;DHT22;23548;51.196;6.838;2023-03-14T14:58:20;9.00;99.90
37702;DHT22;23548;51.196;6.838;2023-03-14T15:03:22;8.90;99.90
37702;DHT22;23548;51.196;6.838;2023-03-14T15:05:48;9.00;99.90
37702;DHT22;23548;51.196;6.838;2023-03-14T15:08:13;8.90;99.90
37702;DHT22;23548;51.196;6.838;2023-03-14T15:10:39;9.10;99.90
37702;DHT22;23548;51.196;6.838;2023-03-14T15:13:05;8.90;99.90
37702;DHT22;23548;51.196;6.838;2023-03-14T15:15:31;9.00;99.90
37702;DHT22;23548;51.196;6.838;2023-03-14T15:17:57;9.10;99.90
37702;DHT22;23548;51.196;6.838;2023-03-14T15:20:23;9.10;99.90
37702;DHT22;23548;51.196;6.838;2023-03-14T15:22:49;9.20;99.90
37702;DHT22;23548;51.196;6.838;2023-03-14T15:25:15;9.50;99.90
37702;DHT22;23548;51.196;6.838;2023-03-14T15:27:41;9.80;99.90
37702;DHT22;23548;51.196;6.838;2023-03-14T15:30:15;9.60;99.90
37702;DHT22;23548;51.196;6.838;2023-03-14T15:32:41;9.70;99.90
37702;DHT22;23548;51.196;6.838;2023-03-14T15:35:08;9.90;99.90
37702;DHT22;23548;51.196;6.838;2023-03-14T15:37:34;9.60;99.90
37702;DHT22;23548;51.196;6.838;2023-03-14T15:40:01;9.20;99.90
37702;DHT22;23548;51.196;6.838;2023-03-14T15:42:29;9.00;99.90
37702;DHT22;23548;51.196;6.838;2023-03-14T15:44:55;8.80;99.90
37702;DHT22;23548;51.196;6.838;2023-03-14T15:47:21;8.80;99.90
37702;DHT22;23548;51.196;6.838;2023-03-14T15:49:47;8.70;99.90
37702;DHT22;23548;51.196;6.838;2023-03-14T15:52:13;8.80;99.90
37702;DHT22;23548;51.196;6.838;2023-03-14T15:54:38;8.80;99.90
37702;DHT22;23548;51.196;6.838;2023-03-14T15:57:04;8.70;99.90
37702;DHT22;23548;51.196;6.838;2023-03-14T15:59:31;8.70;99.90
37702;DHT22;23548;51.196;6.838;2023-03-14T16:01:57;8.60;99.90
37702;DHT22;23548;51.196;6.838;2023-03-14T16:04:23;8.60;99.90
37702;DHT22;23548;51.196;6.838;2023-03-14T16:06:48;8.60;99.90
37702;DHT22;23548;51.196;6.838;2023-03-14T16:09:14;8.60;99.90
37702;DHT22;23548;51.196;6.838;2023-03-14T16:11:40;8.50;99.90
37702;DHT22;23548;51.196;6.838;2023-03-14T16:14:06;8.40;99.90
37702;DHT22;23548;51.196;6.838;2023-03-14T16:16:32;8.30;99.90
37702;DHT22;23548;51.196;6.838;2023-03-14T16:18:58;8.30;99.90
37702;DHT22;23548;51.196;6.838;2023-03-14T16:21:24;8.30;99.90
37702;DHT22;23548;51.196;6.838;2023-03-14T16:23:50;8.30;99.90
37702;DHT22;23548;51.196;6.838;2023-03-14T16:26:18;8.20;99.90
37702;DHT22;23548;51.196;6.838;2023-03-14T16:28:46;8.20;99.90
37702;DHT22;23548;51.196;6.838;2023-03-14T16:31:16;8.20;99.90
37702;DHT22;23548;51.196;6.838;2023-03-14T16:33:42;8.10;99.90
37702;DHT22;23548;51.196;6.838;2023-03-14T16:36:11;8.10;99.90
37702;DHT22;23548;51.196;6.838;2023-03-14T16:38:38;8.00;99.90
37702;DHT22;23548;51.196;6.838;2023-03-14T16:41:10;8.00;99.90
37702;DHT22;23548;51.196;6.838;2023-03-14T16:43:36;8.00;99.90
37702;DHT22;23548;51.196;6.838;2023-03-14T16:46:03;7.90;99.90
37702;DHT22;23548;51.196;6.838;2023-03-14T16:48:29;7.80;99.90
37702;DHT22;23548;51.196;6.838;2023-03-14T16:50:55;7.80;99.90
37702;DHT22;23548;51.196;6.838;2023-03-14T16:53:22;7.70;99.90
37702;DHT22;23548;51.196;6.838;2023-03-14T16:55:49;7.70;99.90
37702;DHT22;23548;51.196;6.838;2023-03-14T16:58:14;7.70;99.90
37702;DHT22;23548;51.196;6.838;2023-03-14T17:00:40;7.60;99.90
37702;DHT22;23548;51.196;6.838;2023-03-14T17:03:06;7.50;99.90
37702;DHT22;23548;51.196;6.838;2023-03-14T17:05:32;7.50;99.90